sensor_id;sensor_type;location;lat;lon;timestamp;pressure;altitude;pressure_sealevel;temperature;humidity
10060;BME280;5069;49.306;8.636;2024-02-15T00:01:09;101063.97;;;11.27;100.00
10060;BME280;5069;49.306;8.636;2024-02-15T00:04:10;101070.97;;;11.28;100.00
10060;BME280;5069;49.306;8.636;2024-02-15T00:07:12;101062.97;;;11.31;100.00
10060;BME280;5069;49.306;8.636;2024-02-15T00:10:14;101056.84;;;11.29;100.00
10060;BME280;5069;49.306;8.636;2024-02-15T00:13:16;101055.19;;;11.25;100.00
10060;BME280;5069;49.306;8.636;2024-02-15T00:16:17;101065.75;;;11.25;100.00
10060;BME280;5069;49.306;8.636;2024-02-15T00:19:19;101075.72;;;11.13;100.00
10060;BME280;5069;49.306;8.636;2024-02-15T00:22:21;101065.31;;;11.07;100.00
10060;BME280;5069;49.306;8.636;2024-02-15T00:25:22;101066.19;;;11.08;100.00
10060;BME280;5069;49.306;8.636;2024-02-15T00:28:24;101063.63;;;11.05;100.00
10060;BME280;5069;49.306;8.636;2024-02-15T00:31:28;101066.31;;;11.03;100.00
10060;BME280;5069;49.306;8.636;2024-02-15T00:34:29;101057.50;;;11.04;100.00
10060;BME280;5069;49.306;8.636;2024-02-15T00:37:31;101059.19;;;11.05;100.00
10060;BME280;5069;49.306;8.636;2024-02-15T00:40:32;101057.50;;;11.04;100.00
10060;BME280;5069;49.306;8.636;2024-02-15T00:43:35;101058.38;;;11.05;100.00
10060;BME280;5069;49.306;8.636;2024-02-15T00:46:38;101054.84;;;11.04;100.00
10060;BME280;5069;49.306;8.636;2024-02-15T00:49:39;101050.44;;;11.05;100.00
10060;BME280;5069;49.306;8.636;2024-02-15T00:52:41;101051.13;;;11.11;100.00
10060;BME280;5069;49.306;8.636;2024-02-15T00:55:43;101043.31;;;11.08;100.00
10060;BME280;5069;49.306;8.636;2024-02-15T00:58:44;101044.19;;;11.09;100.00
10060;BME280;5069;49.306;8.636;2024-02-15T01:01:46;101037.19;;;11.06;100.00
10060;BME280;5069;49.306;8.636;2024-02-15T01:04:50;101033.78;;;11.03;100.00
10060;BME280;5069;49.306;8.636;2024-02-15T01:07:52;101035.59;;;10.99;100.00
10060;BME280;5069;49.306;8.636;2024-02-15T01:10:53;101034.09;;;10.91;100.00
10060;BME280;5069;49.306;8.636;2024-02-15T01:13:55;101038.44;;;10.93;100.00
10060;BME280;5069;49.306;8.636;2024-02-15T01:16:57;101039.19;;;10.97;100.00
10060;BME280;5069;49.306;8.636;2024-02-15T01:19:59;101033.16;;;10.93;100.00
10060;BME280;5069;49.306;8.636;2024-02-15T01:23:01;101028.72;;;10.94;100.00
10060;BME280;5069;49.306;8.636;2024-02-15T01:26:02;101030.56;;;10.90;100.00
10060;BME280;5069;49.306;8.636;2024-02-15T01:29:04;101029.72;;;10.88;100.00
10060;BME280;5069;49.306;8.636;2024-02-15T01:32:06;101033.31;;;10.87;100.00
10060;BME280;5069;49.306;8.636;2024-02-15T01:35:08;101029.72;;;10.88;100.00
10060;BME280;5069;49.306;8.636;2024-02-15T01:38:11;101027.19;;;10.85;100.00
10060;BME280;5069;49.306;8.636;2024-02-15T01:41:13;101024.63;;;10.82;100.00
10060;BME280;5069;49.306;8.636;2024-02-15T01:44:14;101019.41;;;10.79;100.00
10060;BME280;5069;49.306;8.636;2024-02-15T01:47:17;101022.06;;;10.79;100.00
10060;BME280;5069;49.306;8.636;2024-02-15T01:50:21;101015.78;;;10.83;100.00
10060;BME280;5069;49.306;8.636;2024-02-15T01:53:25;101020.16;;;10.84;100.00
10060;BME280;5069;49.306;8.636;2024-02-15T01:56:27;101018.25;;;10.91;100.00
10060;BME280;5069;49.306;8.636;2024-02-15T01:59:30;101010.94;;;11.02;100.00
10060;BME280;5069;49.306;8.636;2024-02-15T02:02:34;101009.22;;;10.99;100.00
10060;BME280;5069;49.306;8.636;2024-02-15T02:05:36;101001.25;;;11.02;100.00
10060;BME280;5069;49.306;8.636;2024-02-15T02:08:39;100997.78;;;11.00;100.00
10060;BME280;5069;49.306;8.636;2024-02-15T02:11:42;101003.06;;;11.00;100.00
10060;BME280;5069;49.306;8.636;2024-02-15T02:14:46;100997.84;;;10.99;100.00
10060;BME280;5069;49.306;8.636;2024-02-15T02:17:49;100996.03;;;10.99;100.00
10060;BME280;5069;49.306;8.636;2024-02-15T02:20:52;100988.97;;;11.01;100.00
10060;BME280;5069;49.306;8.636;2024-02-15T02:23:57;100991.63;;;11.00;100.00
10060;BME280;5069;49.306;8.636;2024-02-15T02:26:59;100988.13;;;10.99;100.00
10060;BME280;5069;49.306;8.636;2024-02-15T02:30:11;100988.97;;;11.01;100.00
10060;BME280;5069;49.306;8.636;2024-02-15T02:33:16;100990.69;;;11.02;100.00
10060;BME280;5069;49.306;8.636;2024-02-15T02:36:21;101007.31;;;11.06;100.00
10060;BME280;5069;49.306;8.636;2024-02-15T02:39:23;101005.50;;;11.08;100.00
10060;BME280;5069;49.306;8.636;2024-02-15T02:42:25;100999.28;;;11.10;100.00
10060;BME280;5069;49.306;8.636;2024-02-15T02:45:26;101003.63;;;11.11;100.00
10060;BME280;5069;49.306;8.636;2024-02-15T02:48:28;101001.00;;;11.11;100.00
10060;BME280;5069;49.306;8.636;2024-02-15T02:51:30;101003.72;;;11.08;100.00
10060;BME280;5069;49.306;8.636;2024-02-15T02:54:32;101011.72;;;11.05;100.00
10060;BME280;5069;49.306;8.636;2024-02-15T02:57:35;101009.91;;;11.07;100.00
10060;BME280;5069;49.306;8.636;2024-02-15T03:00:40;100997.72;;;11.03;100.00
10060;BME280;5069;49.306;8.636;2024-02-15T03:03:41;101002.16;;;11.01;100.00
10060;BME280;5069;49.306;8.636;2024-02-15T03:06:44;101000.53;;;10.96;100.00
10060;BME280;5069;49.306;8.636;2024-02-15T03:09:45;100999.66;;;10.95;100.00
10060;BME280;5069;49.306;8.636;2024-02-15T03:12:48;101003.19;;;10.94;100.00
10060;BME280;5069;49.306;8.636;2024-02-15T03:15:50;100999.59;;;10.98;100.00
10060;BME280;5069;49.306;8.636;2024-02-15T03:18:52;100998.53;;;11.05;100.00
10060;BME280;5069;49.306;8.636;2024-02-15T03:21:54;100996.72;;;11.07;100.00
10060;BME280;5069;49.306;8.636;2024-02-15T03:24:56;100995.03;;;11.05;100.00
10060;BME280;5069;49.306;8.636;2024-02-15T03:27:59;101003.16;;;10.97;100.00
10060;BME280;5069;49.306;8.636;2024-02-15T03:31:04;101012.03;;;10.93;100.00
10060;BME280;5069;49.306;8.636;2024-02-15T03:34:06;100998.03;;;10.91;100.00
10060;BME280;5069;49.306;8.636;2024-02-15T03:37:08;100999.81;;;10.89;100.00
10060;BME280;5069;49.306;8.636;2024-02-15T03:40:11;100989.22;;;10.92;100.00
10060;BME280;5069;49.306;8.636;2024-02-15T03:43:13;100998.06;;;10.88;100.00
10060;BME280;5069;49.306;8.636;2024-02-15T03:46:14;100996.38;;;10.87;100.00
10060;BME280;5069;49.306;8.636;2024-02-15T03:49:17;100994.47;;;10.92;100.00
10060;BME280;5069;49.306;8.636;2024-02-15T03:52:19;100987.22;;;11.00;100.00
10060;BME280;5069;49.306;8.636;2024-02-15T03:55:20;100988.31;;;10.93;100.00
10060;BME280;5069;49.306;8.636;2024-02-15T03:58:23;100996.38;;;10.87;100.00
10060;BME280;5069;49.306;8.636;2024-02-15T04:01:25;100994.63;;;10.86;100.00
10060;BME280;5069;49.306;8.636;2024-02-15T04:04:28;100998.16;;;10.85;100.00
10060;BME280;5069;49.306;8.636;2024-02-15T04:07:32;101001.66;;;10.87;100.00
10060;BME280;5069;49.306;8.636;2024-02-15T04:10:33;101000.78;;;10.87;100.00
10060;BME280;5069;49.306;8.636;2024-02-15T04:13:35;100997.19;;;10.89;100.00
10060;BME280;5069;49.306;8.636;2024-02-15T04:16:36;100998.16;;;10.87;100.00
10060;BME280;5069;49.306;8.636;2024-02-15T04:19:39;100998.16;;;10.85;100.00
10060;BME280;5069;49.306;8.636;2024-02-15T04:22:41;101005.22;;;10.85;100.00
10060;BME280;5069;49.306;8.636;2024-02-15T04:25:45;101003.44;;;10.85;100.00
10060;BME280;5069;49.306;8.636;2024-02-15T04:28:56;101006.06;;;10.87;100.00
10060;BME280;5069;49.306;8.636;2024-02-15T04:31:59;101003.44;;;10.85;100.00
10060;BME280;5069;49.306;8.636;2024-02-15T04:35:00;100994.53;;;10.89;100.00
10060;BME280;5069;49.306;8.636;2024-02-15T04:38:03;101000.81;;;10.85;100.00
10060;BME280;5069;49.306;8.636;2024-02-15T04:41:05;101006.09;;;10.85;100.00
10060;BME280;5069;49.306;8.636;2024-02-15T04:44:09;101001.72;;;10.84;100.00
10060;BME280;5069;49.306;8.636;2024-02-15T04:47:13;101003.53;;;10.82;100.00
10060;BME280;5069;49.306;8.636;2024-02-15T04:50:16;100994.75;;;10.82;100.00
10060;BME280;5069;49.306;8.636;2024-02-15T04:53:20;100987.63;;;10.85;100.00
10060;BME280;5069;49.306;8.636;2024-02-15T04:56:22;100991.00;;;10.90;100.00
10060;BME280;5069;49.306;8.636;2024-02-15T04:59:24;100990.84;;;10.96;100.00
10060;BME280;5069;49.306;8.636;2024-02-15T05:02:30;100986.34;;;11.00;100.00
10060;BME280;5069;49.306;8.636;2024-02-15T05:05:31;100978.44;;;11.00;100.00
10060;BME280;5069;49.306;8.636;2024-02-15T05:08:33;100980.16;;;11.02;100.00
10060;BME280;5069;49.306;8.636;2024-02-15T05:11:37;100976.66;;;11.00;100.00
10060;BME280;5069;49.306;8.636;2024-02-15T05:14:48;100971.38;;;11.00;100.00
10060;BME280;5069;49.306;8.636;2024-02-15T05:17:50;100974.88;;;11.02;100.00
10060;BME280;5069;49.306;8.636;2024-02-15T05:20:51;100969.59;;;11.02;100.00
10060;BME280;5069;49.306;8.636;2024-02-15T05:23:53;100969.66;;;10.99;100.00
10060;BME280;5069;49.306;8.636;2024-02-15T05:26:56;100961.69;;;11.02;100.00
10060;BME280;5069;49.306;8.636;2024-02-15T05:29:58;100968.72;;;11.02;100.00
10060;BME280;5069;49.306;8.636;2024-02-15T05:33:00;100967.81;;;11.03;100.00
10060;BME280;5069;49.306;8.636;2024-02-15T05:36:03;100968.72;;;11.02;100.00
10060;BME280;5069;49.306;8.636;2024-02-15T05:39:04;100962.56;;;11.01;100.00
10060;BME280;5069;49.306;8.636;2024-02-15T05:42:06;100960.78;;;11.03;100.00
10060;BME280;5069;49.306;8.636;2024-02-15T05:45:35;100964.31;;;11.02;100.00
10060;BME280;5069;49.306;8.636;2024-02-15T05:48:37;100967.78;;;11.04;100.00
10060;BME280;5069;49.306;8.636;2024-02-15T05:51:41;100962.50;;;11.04;100.00
10060;BME280;5069;49.306;8.636;2024-02-15T05:54:45;100968.66;;;11.05;100.00
10060;BME280;5069;49.306;8.636;2024-02-15T05:57:47;100972.09;;;11.07;100.00
10060;BME280;5069;49.306;8.636;2024-02-15T06:00:48;100972.91;;;11.10;100.00
10060;BME280;5069;49.306;8.636;2024-02-15T06:03:51;100968.47;;;11.11;100.00
10060;BME280;5069;49.306;8.636;2024-02-15T06:06:56;100976.34;;;11.12;100.00
10060;BME280;5069;49.306;8.636;2024-02-15T06:10:02;100964.16;;;11.08;100.00
10060;BME280;5069;49.306;8.636;2024-02-15T06:13:04;100960.53;;;11.12;100.00
10060;BME280;5069;49.306;8.636;2024-02-15T06:16:06;100964.06;;;11.11;100.00
10060;BME280;5069;49.306;8.636;2024-02-15T06:19:10;100960.63;;;11.09;100.00
10060;BME280;5069;49.306;8.636;2024-02-15T06:22:12;100959.50;;;11.18;100.00
10060;BME280;5069;49.306;8.636;2024-02-15T06:25:14;100961.22;;;11.19;100.00
10060;BME280;5069;49.306;8.636;2024-02-15T06:28:17;100958.63;;;11.17;100.00
10060;BME280;5069;49.306;8.636;2024-02-15T06:31:41;100951.53;;;11.19;100.00
10060;BME280;5069;49.306;8.636;2024-02-15T06:35:01;100950.63;;;11.21;100.00
10060;BME280;5069;49.306;8.636;2024-02-15T06:38:20;100949.81;;;11.18;100.00
10060;BME280;5069;49.306;8.636;2024-02-15T06:41:41;100955.25;;;11.12;100.00
10060;BME280;5069;49.306;8.636;2024-02-15T06:44:47;100950.00;;;11.11;100.00
10060;BME280;5069;49.306;8.636;2024-02-15T06:47:49;100943.00;;;11.10;100.00
10060;BME280;5069;49.306;8.636;2024-02-15T06:50:51;100948.22;;;11.11;100.00
10060;BME280;5069;49.306;8.636;2024-02-15T06:53:53;100945.41;;;11.19;100.00
10060;BME280;5069;49.306;8.636;2024-02-15T06:56:57;100950.00;;;11.11;100.00
10060;BME280;5069;49.306;8.636;2024-02-15T06:59:59;100956.97;;;11.13;100.00
10060;BME280;5069;49.306;8.636;2024-02-15T07:03:01;100959.41;;;11.21;100.00
10060;BME280;5069;49.306;8.636;2024-02-15T07:06:02;100952.28;;;11.25;100.00
10060;BME280;5069;49.306;8.636;2024-02-15T07:09:05;100949.72;;;11.22;100.00
10060;BME280;5069;49.306;8.636;2024-02-15T07:12:07;100940.06;;;11.21;100.00
10060;BME280;5069;49.306;8.636;2024-02-15T07:15:09;100940.13;;;11.19;100.00
10060;BME280;5069;49.306;8.636;2024-02-15T07:18:12;100944.53;;;11.18;100.00
10060;BME280;5069;49.306;8.636;2024-02-15T07:21:17;100944.53;;;11.18;100.00
10060;BME280;5069;49.306;8.636;2024-02-15T07:24:22;100942.78;;;11.17;100.00
10060;BME280;5069;49.306;8.636;2024-02-15T07:27:24;100945.41;;;11.19;100.00
10060;BME280;5069;49.306;8.636;2024-02-15T07:30:27;100937.34;;;11.24;100.00
10060;BME280;5069;49.306;8.636;2024-02-15T07:33:29;100927.66;;;11.24;100.00
10060;BME280;5069;49.306;8.636;2024-02-15T07:36:30;100940.00;;;11.22;100.00
10060;BME280;5069;49.306;8.636;2024-02-15T07:39:32;100928.69;;;11.18;100.00
10060;BME280;5069;49.306;8.636;2024-02-15T07:42:33;100928.63;;;11.22;100.00
10060;BME280;5069;49.306;8.636;2024-02-15T07:45:36;100924.16;;;11.24;100.00
10060;BME280;5069;49.306;8.636;2024-02-15T07:48:38;100936.31;;;11.29;100.00
10060;BME280;5069;49.306;8.636;2024-02-15T07:51:41;100928.44;;;11.28;100.00
10060;BME280;5069;49.306;8.636;2024-02-15T07:54:43;100922.31;;;11.27;100.00
10060;BME280;5069;49.306;8.636;2024-02-15T07:57:44;100928.44;;;11.28;100.00
10060;BME280;5069;49.306;8.636;2024-02-15T08:00:50;100938.06;;;11.29;100.00
10060;BME280;5069;49.306;8.636;2024-02-15T08:03:52;100934.50;;;11.31;100.00
10060;BME280;5069;49.306;8.636;2024-02-15T08:06:55;100929.09;;;11.36;100.00
10060;BME280;5069;49.306;8.636;2024-02-15T08:09:57;100933.59;;;11.32;100.00
10060;BME280;5069;49.306;8.636;2024-02-15T08:12:59;100935.38;;;11.32;100.00
10060;BME280;5069;49.306;8.636;2024-02-15T08:16:00;100932.50;;;11.39;100.00
10060;BME280;5069;49.306;8.636;2024-02-15T08:19:02;100940.19;;;11.47;100.00
10060;BME280;5069;49.306;8.636;2024-02-15T08:22:06;100939.25;;;11.49;100.00
10060;BME280;5069;49.306;8.636;2024-02-15T08:25:11;100943.50;;;11.55;100.00
10060;BME280;5069;49.306;8.636;2024-02-15T08:28:13;100945.16;;;11.57;100.00
10060;BME280;5069;49.306;8.636;2024-02-15T08:31:14;100942.47;;;11.60;100.00
10060;BME280;5069;49.306;8.636;2024-02-15T08:34:16;100939.69;;;11.65;100.00
10060;BME280;5069;49.306;8.636;2024-02-15T08:37:20;100941.31;;;11.69;100.00
10060;BME280;5069;49.306;8.636;2024-02-15T08:40:21;100931.44;;;11.77;100.00
10060;BME280;5069;49.306;8.636;2024-02-15T08:43:27;100932.03;;;11.85;100.00
10060;BME280;5069;49.306;8.636;2024-02-15T08:46:28;100927.69;;;11.84;100.00
10060;BME280;5069;49.306;8.636;2024-02-15T08:49:30;100925.63;;;11.94;100.00
10060;BME280;5069;49.306;8.636;2024-02-15T08:52:32;100923.72;;;11.99;100.00
10060;BME280;5069;49.306;8.636;2024-02-15T08:55:34;100925.81;;;12.16;100.00
10060;BME280;5069;49.306;8.636;2024-02-15T08:58:37;100926.53;;;12.21;100.00
10060;BME280;5069;49.306;8.636;2024-02-15T09:01:41;100926.13;;;12.34;100.00
10060;BME280;5069;49.306;8.636;2024-02-15T09:04:44;100915.22;;;12.43;100.00
10060;BME280;5069;49.306;8.636;2024-02-15T09:07:46;100910.59;;;12.50;100.00
10060;BME280;5069;49.306;8.636;2024-02-15T09:10:52;100900.53;;;12.61;100.00
10060;BME280;5069;49.306;8.636;2024-02-15T09:13:55;100896.22;;;12.83;100.00
10060;BME280;5069;49.306;8.636;2024-02-15T09:16:56;100894.50;;;13.07;100.00
10060;BME280;5069;49.306;8.636;2024-02-15T09:19:58;100887.19;;;13.15;100.00
10060;BME280;5069;49.306;8.636;2024-02-15T09:23:00;100880.56;;;13.27;100.00
10060;BME280;5069;49.306;8.636;2024-02-15T09:26:09;100871.25;;;13.40;100.00
10060;BME280;5069;49.306;8.636;2024-02-15T09:29:11;100867.16;;;13.55;100.00
10060;BME280;5069;49.306;8.636;2024-02-15T09:32:13;100863.34;;;13.62;100.00
10060;BME280;5069;49.306;8.636;2024-02-15T09:35:15;100855.97;;;13.70;100.00
10060;BME280;5069;49.306;8.636;2024-02-15T09:38:17;100858.19;;;13.81;100.00
10060;BME280;5069;49.306;8.636;2024-02-15T09:41:20;100853.28;;;13.93;100.00
10060;BME280;5069;49.306;8.636;2024-02-15T09:44:22;100851.31;;;13.98;100.00
10060;BME280;5069;49.306;8.636;2024-02-15T09:47:25;100838.47;;;14.10;100.00
10060;BME280;5069;49.306;8.636;2024-02-15T09:50:30;100836.13;;;14.24;100.00
10060;BME280;5069;49.306;8.636;2024-02-15T09:53:35;100836.97;;;14.24;100.00
10060;BME280;5069;49.306;8.636;2024-02-15T09:56:37;100833.53;;;14.22;100.00
10060;BME280;5069;49.306;8.636;2024-02-15T09:59:40;100821.34;;;14.40;100.00
10060;BME280;5069;49.306;8.636;2024-02-15T10:02:47;100821.63;;;14.53;100.00
10060;BME280;5069;49.306;8.636;2024-02-15T10:05:51;100819.31;;;14.65;100.00
10060;BME280;5069;49.306;8.636;2024-02-15T10:08:52;100818.41;;;14.66;100.00
10060;BME280;5069;49.306;8.636;2024-02-15T10:11:59;100816.56;;;14.68;100.00
10060;BME280;5069;49.306;8.636;2024-02-15T10:15:01;100814.63;;;14.92;100.00
10060;BME280;5069;49.306;8.636;2024-02-15T10:18:05;100807.56;;;14.91;100.00
10060;BME280;5069;49.306;8.636;2024-02-15T10:21:09;100808.31;;;15.13;100.00
10060;BME280;5069;49.306;8.636;2024-02-15T10:24:12;100806.59;;;15.12;100.00
10060;BME280;5069;49.306;8.636;2024-02-15T10:27:23;100805.72;;;15.12;100.00
10060;BME280;5069;49.306;8.636;2024-02-15T10:30:25;100799.28;;;15.17;100.00
10060;BME280;5069;49.306;8.636;2024-02-15T10:33:28;100798.00;;;15.26;100.00
10060;BME280;5069;49.306;8.636;2024-02-15T10:36:31;100787.16;;;15.30;100.00
10060;BME280;5069;49.306;8.636;2024-02-15T10:39:36;100784.06;;;15.40;100.00
10060;BME280;5069;49.306;8.636;2024-02-15T10:42:40;100783.53;;;15.52;100.00
10060;BME280;5069;49.306;8.636;2024-02-15T10:45:44;100783.28;;;15.56;100.00
10060;BME280;5069;49.306;8.636;2024-02-15T10:48:46;100780.19;;;15.47;100.00
10060;BME280;5069;49.306;8.636;2024-02-15T10:51:59;100777.59;;;15.45;100.00
10060;BME280;5069;49.306;8.636;2024-02-15T10:55:08;100779.63;;;15.59;100.00
10060;BME280;5069;49.306;8.636;2024-02-15T10:58:19;100771.03;;;15.54;100.00
10060;BME280;5069;49.306;8.636;2024-02-15T11:01:21;100766.47;;;15.56;100.00
10060;BME280;5069;49.306;8.636;2024-02-15T11:04:26;100762.78;;;15.60;100.00
10060;BME280;5069;49.306;8.636;2024-02-15T11:07:33;100752.53;;;15.69;100.00
10060;BME280;5069;49.306;8.636;2024-02-15T11:10:36;100743.97;;;15.82;100.00
10060;BME280;5069;49.306;8.636;2024-02-15T11:13:39;100746.66;;;15.99;100.00
10060;BME280;5069;49.306;8.636;2024-02-15T11:16:43;100741.56;;;15.94;100.00
10060;BME280;5069;49.306;8.636;2024-02-15T11:19:45;100740.47;;;15.98;100.00
10060;BME280;5069;49.306;8.636;2024-02-15T11:22:56;100728.34;;;15.93;100.00
10060;BME280;5069;49.306;8.636;2024-02-15T11:25:58;100725.44;;;15.97;100.00
10060;BME280;5069;49.306;8.636;2024-02-15T11:29:02;100725.38;;;15.99;100.00
10060;BME280;5069;49.306;8.636;2024-02-15T11:32:04;100719.50;;;16.09;100.00
10060;BME280;5069;49.306;8.636;2024-02-15T11:35:08;100723.59;;;16.17;100.00
10060;BME280;5069;49.306;8.636;2024-02-15T11:38:27;100715.34;;;16.04;100.00
10060;BME280;5069;49.306;8.636;2024-02-15T11:41:29;100714.19;;;16.27;100.00
10060;BME280;5069;49.306;8.636;2024-02-15T11:44:31;100711.97;;;16.35;100.00
10060;BME280;5069;49.306;8.636;2024-02-15T11:47:37;100711.19;;;16.33;100.00
10060;BME280;5069;49.306;8.636;2024-02-15T11:50:39;100705.81;;;16.34;100.00
10060;BME280;5069;49.306;8.636;2024-02-15T11:53:40;100700.53;;;16.50;100.00
10060;BME280;5069;49.306;8.636;2024-02-15T11:56:51;100689.16;;;16.46;100.00
10060;BME280;5069;49.306;8.636;2024-02-15T11:59:56;100692.22;;;16.73;100.00
10060;BME280;5069;49.306;8.636;2024-02-15T12:03:17;100677.25;;;16.71;100.00
10060;BME280;5069;49.306;8.636;2024-02-15T12:06:37;100680.91;;;16.85;100.00
10060;BME280;5069;49.306;8.636;2024-02-15T12:09:59;100669.53;;;16.98;99.88
10060;BME280;5069;49.306;8.636;2024-02-15T12:13:19;100656.84;;;17.03;100.00
10060;BME280;5069;49.306;8.636;2024-02-15T12:16:39;100658.81;;;17.15;100.00
10060;BME280;5069;49.306;8.636;2024-02-15T12:20:01;100644.78;;;17.27;98.06
10060;BME280;5069;49.306;8.636;2024-02-15T12:23:07;100647.03;;;17.19;97.79
10060;BME280;5069;49.306;8.636;2024-02-15T12:26:09;100636.03;;;17.25;97.45
10060;BME280;5069;49.306;8.636;2024-02-15T12:29:16;100631.31;;;17.30;95.07
10060;BME280;5069;49.306;8.636;2024-02-15T12:32:23;100623.47;;;17.27;95.76
10060;BME280;5069;49.306;8.636;2024-02-15T12:35:25;100618.94;;;17.29;93.91
10060;BME280;5069;49.306;8.636;2024-02-15T12:38:26;100612.81;;;17.27;92.68
10060;BME280;5069;49.306;8.636;2024-02-15T12:41:28;100617.63;;;17.36;90.54
10060;BME280;5069;49.306;8.636;2024-02-15T12:44:29;100606.63;;;17.42;87.96
10060;BME280;5069;49.306;8.636;2024-02-15T12:47:34;100599.56;;;17.41;87.58
10060;BME280;5069;49.306;8.636;2024-02-15T12:50:35;100609.41;;;17.25;90.89
10060;BME280;5069;49.306;8.636;2024-02-15T12:53:37;100597.72;;;17.12;90.81
10060;BME280;5069;49.306;8.636;2024-02-15T12:56:38;100604.06;;;17.09;93.54
10060;BME280;5069;49.306;8.636;2024-02-15T12:59:41;100601.66;;;17.20;92.63
10060;BME280;5069;49.306;8.636;2024-02-15T13:02:45;100604.00;;;17.11;94.92
10060;BME280;5069;49.306;8.636;2024-02-15T13:05:48;100595.13;;;17.10;93.86
10060;BME280;5069;49.306;8.636;2024-02-15T13:08:50;100591.81;;;17.07;93.02
10060;BME280;5069;49.306;8.636;2024-02-15T13:11:52;100586.63;;;17.04;92.77
10060;BME280;5069;49.306;8.636;2024-02-15T13:14:55;100588.63;;;17.00;91.61
10060;BME280;5069;49.306;8.636;2024-02-15T13:17:56;100583.28;;;17.16;92.16
10060;BME280;5069;49.306;8.636;2024-02-15T13:20:58;100585.59;;;17.22;92.99
10060;BME280;5069;49.306;8.636;2024-02-15T13:24:03;100582.00;;;17.07;90.25
10060;BME280;5069;49.306;8.636;2024-02-15T13:27:06;100581.94;;;16.93;88.75
10060;BME280;5069;49.306;8.636;2024-02-15T13:30:08;100583.22;;;17.02;91.75
10060;BME280;5069;49.306;8.636;2024-02-15T13:33:10;100570.22;;;17.11;92.59
10060;BME280;5069;49.306;8.636;2024-02-15T13:36:12;100568.00;;;17.04;90.23
10060;BME280;5069;49.306;8.636;2024-02-15T13:39:14;100570.75;;;17.02;88.10
10060;BME280;5069;49.306;8.636;2024-02-15T13:42:16;100561.22;;;17.14;89.83
10060;BME280;5069;49.306;8.636;2024-02-15T13:45:22;100557.41;;;17.18;89.80
10060;BME280;5069;49.306;8.636;2024-02-15T13:48:24;100554.16;;;17.13;89.26
10060;BME280;5069;49.306;8.636;2024-02-15T13:51:31;100552.88;;;17.20;93.51
10060;BME280;5069;49.306;8.636;2024-02-15T13:54:32;100543.00;;;17.06;91.02
10060;BME280;5069;49.306;8.636;2024-02-15T13:57:34;100540.50;;;17.19;94.53
10060;BME280;5069;49.306;8.636;2024-02-15T14:00:36;100534.97;;;17.22;92.73
10060;BME280;5069;49.306;8.636;2024-02-15T14:03:39;100531.72;;;17.17;94.28
10060;BME280;5069;49.306;8.636;2024-02-15T14:06:40;100533.34;;;17.19;95.90
10060;BME280;5069;49.306;8.636;2024-02-15T14:09:42;100533.81;;;17.26;96.14
10060;BME280;5069;49.306;8.636;2024-02-15T14:12:44;100531.28;;;17.24;93.29
10060;BME280;5069;49.306;8.636;2024-02-15T14:15:46;100529.63;;;17.22;95.91
10060;BME280;5069;49.306;8.636;2024-02-15T14:18:47;100521.06;;;17.17;97.06
10060;BME280;5069;49.306;8.636;2024-02-15T14:21:51;100520.19;;;17.16;100.00
10060;BME280;5069;49.306;8.636;2024-02-15T14:24:55;100530.78;;;17.18;100.00
10060;BME280;5069;49.306;8.636;2024-02-15T14:27:58;100530.78;;;17.18;97.69
10060;BME280;5069;49.306;8.636;2024-02-15T14:30:59;100517.84;;;17.26;98.11
10060;BME280;5069;49.306;8.636;2024-02-15T14:34:19;100520.50;;;17.26;99.57
10060;BME280;5069;49.306;8.636;2024-02-15T14:37:22;100518.31;;;17.18;99.34
10060;BME280;5069;49.306;8.636;2024-02-15T14:40:25;100517.44;;;17.18;100.00
10060;BME280;5069;49.306;8.636;2024-02-15T14:43:28;100511.63;;;17.11;97.04
10060;BME280;5069;49.306;8.636;2024-02-15T14:46:30;100515.06;;;16.98;100.00
10060;BME280;5069;49.306;8.636;2024-02-15T14:49:31;100504.97;;;16.88;100.00
10060;BME280;5069;49.306;8.636;2024-02-15T14:52:33;100499.50;;;16.91;100.00
10060;BME280;5069;49.306;8.636;2024-02-15T14:55:35;100493.97;;;16.94;100.00
10060;BME280;5069;49.306;8.636;2024-02-15T14:58:36;100496.03;;;16.89;100.00
10060;BME280;5069;49.306;8.636;2024-02-15T15:01:39;100498.72;;;16.89;100.00
10060;BME280;5069;49.306;8.636;2024-02-15T15:04:42;100490.88;;;16.86;100.00
10060;BME280;5069;49.306;8.636;2024-02-15T15:08:19;100477.91;;;16.80;100.00
10060;BME280;5069;49.306;8.636;2024-02-15T15:11:39;100484.44;;;16.90;100.00
10060;BME280;5069;49.306;8.636;2024-02-15T15:14:59;100480.22;;;16.86;100.00
10060;BME280;5069;49.306;8.636;2024-02-15T15:18:01;100475.38;;;16.79;100.00
10060;BME280;5069;49.306;8.636;2024-02-15T15:21:06;100468.31;;;16.78;100.00
10060;BME280;5069;49.306;8.636;2024-02-15T15:24:07;100457.84;;;16.75;100.00
10060;BME280;5069;49.306;8.636;2024-02-15T15:27:11;100452.97;;;16.67;100.00
10060;BME280;5069;49.306;8.636;2024-02-15T15:30:14;100451.59;;;16.60;100.00
10060;BME280;5069;49.306;8.636;2024-02-15T15:33:16;100444.88;;;16.53;100.00
10060;BME280;5069;49.306;8.636;2024-02-15T15:36:18;100429.78;;;16.53;100.00
10060;BME280;5069;49.306;8.636;2024-02-15T15:39:21;100428.50;;;16.45;100.00
10060;BME280;5069;49.306;8.636;2024-02-15T15:42:25;100431.69;;;16.36;100.00
10060;BME280;5069;49.306;8.636;2024-02-15T15:45:29;100437.00;;;16.36;100.00
10060;BME280;5069;49.306;8.636;2024-02-15T15:48:31;100434.69;;;16.30;100.00
10060;BME280;5069;49.306;8.636;2024-02-15T15:51:34;100412.06;;;16.23;100.00
10060;BME280;5069;49.306;8.636;2024-02-15T15:54:39;100435.47;;;16.16;100.00
10060;BME280;5069;49.306;8.636;2024-02-15T15:57:41;100436.69;;;16.10;100.00
10060;BME280;5069;49.306;8.636;2024-02-15T16:00:43;100429.03;;;16.04;100.00
10060;BME280;5069;49.306;8.636;2024-02-15T16:03:48;100432.97;;;15.97;100.00